sensor_id;sensor_type;location;lat;lon;timestamp;P1;durP1;ratioP1;P2;durP2;ratioP2
6023;SDS011;3040;42.654;23.296;2023-01-10T00:00:06;26.10;;;16.63;;
6023;SDS011;3040;42.654;23.296;2023-01-10T00:02:33;23.03;;;15.83;;
6023;SDS011;3040;42.654;23.296;2023-01-10T00:05:02;24.10;;;16.47;;
6023;SDS011;3040;42.654;23.296;2023-01-10T00:07:29;22.57;;;15.93;;
6023;SDS011;3040;42.654;23.296;2023-01-10T00:09:57;28.80;;;17.03;;
6023;SDS011;3040;42.654;23.296;2023-01-10T00:12:23;26.70;;;16.47;;
6023;SDS011;3040;42.654;23.296;2023-01-10T00:15:08;22.87;;;15.60;;
6023;SDS011;3040;42.654;23.296;2023-01-10T00:17:36;22.47;;;15.47;;
6023;SDS011;3040;42.654;23.296;2023-01-10T00:20:04;25.07;;;16.17;;
6023;SDS011;3040;42.654;23.296;2023-01-10T00:22:32;24.63;;;15.77;;
6023;SDS011;3040;42.654;23.296;2023-01-10T00:24:59;25.17;;;16.70;;
6023;SDS011;3040;42.654;23.296;2023-01-10T00:27:25;23.87;;;15.30;;
6023;SDS011;3040;42.654;23.296;2023-01-10T00:29:53;19.93;;;14.27;;
6023;SDS011;3040;42.654;23.296;2023-01-10T00:32:20;20.50;;;15.17;;
6023;SDS011;3040;42.654;23.296;2023-01-10T00:34:47;27.13;;;16.53;;
6023;SDS011;3040;42.654;23.296;2023-01-10T00:37:16;23.03;;;16.07;;
6023;SDS011;3040;42.654;23.296;2023-01-10T00:39:43;21.57;;;15.17;;
6023;SDS011;3040;42.654;23.296;2023-01-10T00:42:10;21.10;;;14.73;;
6023;SDS011;3040;42.654;23.296;2023-01-10T00:44:54;21.33;;;14.80;;
6023;SDS011;3040;42.654;23.296;2023-01-10T00:47:21;21.20;;;14.80;;
6023;SDS011;3040;42.654;23.296;2023-01-10T00:49:48;18.53;;;14.27;;
6023;SDS011;3040;42.654;23.296;2023-01-10T00:52:16;20.27;;;14.40;;
6023;SDS011;3040;42.654;23.296;2023-01-10T00:54:43;17.83;;;13.77;;
6023;SDS011;3040;42.654;23.296;2023-01-10T00:57:10;20.50;;;13.70;;
6023;SDS011;3040;42.654;23.296;2023-01-10T00:59:37;23.23;;;14.63;;
6023;SDS011;3040;42.654;23.296;2023-01-10T01:02:04;20.80;;;15.27;;
6023;SDS011;3040;42.654;23.296;2023-01-10T01:04:31;23.33;;;15.77;;
6023;SDS011;3040;42.654;23.296;2023-01-10T01:06:59;17.07;;;14.20;;
6023;SDS011;3040;42.654;23.296;2023-01-10T01:09:28;21.90;;;14.83;;
6023;SDS011;3040;42.654;23.296;2023-01-10T01:11:55;22.00;;;15.43;;
6023;SDS011;3040;42.654;23.296;2023-01-10T01:14:22;23.27;;;15.60;;
6023;SDS011;3040;42.654;23.296;2023-01-10T01:16:49;23.33;;;14.90;;
6023;SDS011;3040;42.654;23.296;2023-01-10T01:19:16;30.57;;;17.57;;
6023;SDS011;3040;42.654;23.296;2023-01-10T01:21:43;23.40;;;15.93;;
6023;SDS011;3040;42.654;23.296;2023-01-10T01:24:10;25.53;;;16.67;;
6023;SDS011;3040;42.654;23.296;2023-01-10T01:26:38;25.80;;;15.20;;
6023;SDS011;3040;42.654;23.296;2023-01-10T01:29:06;25.90;;;16.33;;
6023;SDS011;3040;42.654;23.296;2023-01-10T01:31:33;24.33;;;16.67;;
6023;SDS011;3040;42.654;23.296;2023-01-10T01:34:00;23.20;;;15.93;;
6023;SDS011;3040;42.654;23.296;2023-01-10T01:36:27;27.37;;;16.37;;
6023;SDS011;3040;42.654;23.296;2023-01-10T01:38:54;24.37;;;15.50;;
6023;SDS011;3040;42.654;23.296;2023-01-10T01:41:21;29.10;;;17.40;;
6023;SDS011;3040;42.654;23.296;2023-01-10T01:44:09;22.27;;;15.57;;
6023;SDS011;3040;42.654;23.296;2023-01-10T01:46:40;23.23;;;15.57;;
6023;SDS011;3040;42.654;23.296;2023-01-10T01:49:12;19.97;;;15.33;;
6023;SDS011;3040;42.654;23.296;2023-01-10T01:51:43;23.10;;;15.87;;
6023;SDS011;3040;42.654;23.296;2023-01-10T01:54:13;19.30;;;14.40;;
6023;SDS011;3040;42.654;23.296;2023-01-10T01:56:43;22.43;;;14.30;;
6023;SDS011;3040;42.654;23.296;2023-01-10T01:59:16;22.73;;;13.50;;
6023;SDS011;3040;42.654;23.296;2023-01-10T02:01:49;18.63;;;13.93;;
6023;SDS011;3040;42.654;23.296;2023-01-10T02:04:20;19.13;;;14.53;;
6023;SDS011;3040;42.654;23.296;2023-01-10T02:06:50;17.07;;;13.77;;
6023;SDS011;3040;42.654;23.296;2023-01-10T02:09:21;23.67;;;15.43;;
6023;SDS011;3040;42.654;23.296;2023-01-10T02:11:51;26.20;;;16.93;;
6023;SDS011;3040;42.654;23.296;2023-01-10T02:14:19;25.50;;;16.03;;
6023;SDS011;3040;42.654;23.296;2023-01-10T02:16:48;21.20;;;16.27;;
6023;SDS011;3040;42.654;23.296;2023-01-10T02:19:16;22.57;;;15.30;;
6023;SDS011;3040;42.654;23.296;2023-01-10T02:21:58;18.83;;;14.37;;
6023;SDS011;3040;42.654;23.296;2023-01-10T02:25:03;20.47;;;15.23;;
6023;SDS011;3040;42.654;23.296;2023-01-10T02:28:04;18.47;;;14.03;;
6023;SDS011;3040;42.654;23.296;2023-01-10T02:30:52;15.93;;;12.27;;
6023;SDS011;3040;42.654;23.296;2023-01-10T02:33:37;18.93;;;15.10;;
6023;SDS011;3040;42.654;23.296;2023-01-10T02:36:19;22.63;;;15.87;;
6023;SDS011;3040;42.654;23.296;2023-01-10T02:39:01;25.90;;;16.23;;
6023;SDS011;3040;42.654;23.296;2023-01-10T02:41:34;22.10;;;15.83;;
6023;SDS011;3040;42.654;23.296;2023-01-10T02:44:07;24.97;;;15.90;;
6023;SDS011;3040;42.654;23.296;2023-01-10T02:46:41;25.17;;;16.33;;
6023;SDS011;3040;42.654;23.296;2023-01-10T02:49:11;21.70;;;16.10;;
6023;SDS011;3040;42.654;23.296;2023-01-10T02:51:38;21.17;;;15.40;;
6023;SDS011;3040;42.654;23.296;2023-01-10T02:54:05;24.33;;;16.40;;
6023;SDS011;3040;42.654;23.296;2023-01-10T02:56:59;25.17;;;16.07;;
6023;SDS011;3040;42.654;23.296;2023-01-10T02:59:41;21.17;;;15.03;;
6023;SDS011;3040;42.654;23.296;2023-01-10T03:02:32;25.67;;;16.07;;
6023;SDS011;3040;42.654;23.296;2023-01-10T03:05:09;25.93;;;17.40;;
6023;SDS011;3040;42.654;23.296;2023-01-10T03:07:46;24.53;;;17.93;;
6023;SDS011;3040;42.654;23.296;2023-01-10T03:10:22;26.50;;;16.73;;
6023;SDS011;3040;42.654;23.296;2023-01-10T03:12:54;22.50;;;15.67;;
6023;SDS011;3040;42.654;23.296;2023-01-10T03:15:24;21.47;;;15.53;;
6023;SDS011;3040;42.654;23.296;2023-01-10T03:17:55;22.23;;;14.57;;
6023;SDS011;3040;42.654;23.296;2023-01-10T03:20:28;26.20;;;15.57;;
6023;SDS011;3040;42.654;23.296;2023-01-10T03:22:57;22.03;;;15.00;;
6023;SDS011;3040;42.654;23.296;2023-01-10T03:25:27;20.67;;;15.93;;
6023;SDS011;3040;42.654;23.296;2023-01-10T03:28:01;19.43;;;14.47;;
6023;SDS011;3040;42.654;23.296;2023-01-10T03:30:33;18.23;;;14.20;;
6023;SDS011;3040;42.654;23.296;2023-01-10T03:33:05;23.17;;;16.47;;
6023;SDS011;3040;42.654;23.296;2023-01-10T03:35:35;19.50;;;15.40;;
6023;SDS011;3040;42.654;23.296;2023-01-10T03:38:15;20.90;;;14.43;;
6023;SDS011;3040;42.654;23.296;2023-01-10T03:40:51;19.90;;;14.90;;
6023;SDS011;3040;42.654;23.296;2023-01-10T03:43:24;16.50;;;12.67;;
6023;SDS011;3040;42.654;23.296;2023-01-10T03:46:16;16.40;;;13.27;;
6023;SDS011;3040;42.654;23.296;2023-01-10T03:48:50;19.70;;;14.30;;
6023;SDS011;3040;42.654;23.296;2023-01-10T03:51:19;19.63;;;15.13;;
6023;SDS011;3040;42.654;23.296;2023-01-10T03:53:46;25.93;;;17.00;;
6023;SDS011;3040;42.654;23.296;2023-01-10T03:56:13;18.50;;;15.03;;
6023;SDS011;3040;42.654;23.296;2023-01-10T03:58:40;23.10;;;15.47;;
6023;SDS011;3040;42.654;23.296;2023-01-10T04:01:07;22.27;;;14.50;;
6023;SDS011;3040;42.654;23.296;2023-01-10T04:03:34;21.23;;;15.53;;
6023;SDS011;3040;42.654;23.296;2023-01-10T04:06:02;20.60;;;14.93;;
6023;SDS011;3040;42.654;23.296;2023-01-10T04:08:30;24.77;;;16.27;;
6023;SDS011;3040;42.654;23.296;2023-01-10T04:10:57;19.83;;;15.20;;
6023;SDS011;3040;42.654;23.296;2023-01-10T04:13:24;22.70;;;16.57;;
6023;SDS011;3040;42.654;23.296;2023-01-10T04:15:51;19.33;;;15.17;;
6023;SDS011;3040;42.654;23.296;2023-01-10T04:18:18;20.20;;;15.37;;
6023;SDS011;3040;42.654;23.296;2023-01-10T04:20:45;18.07;;;15.07;;
6023;SDS011;3040;42.654;23.296;2023-01-10T04:23:12;16.57;;;12.13;;
6023;SDS011;3040;42.654;23.296;2023-01-10T04:25:40;13.07;;;10.10;;
6023;SDS011;3040;42.654;23.296;2023-01-10T04:28:07;12.17;;;10.97;;
6023;SDS011;3040;42.654;23.296;2023-01-10T04:30:34;15.60;;;13.93;;
6023;SDS011;3040;42.654;23.296;2023-01-10T04:33:01;21.67;;;15.33;;
6023;SDS011;3040;42.654;23.296;2023-01-10T04:35:28;18.17;;;14.23;;
6023;SDS011;3040;42.654;23.296;2023-01-10T04:37:55;18.73;;;14.23;;
6023;SDS011;3040;42.654;23.296;2023-01-10T04:40:22;17.30;;;13.53;;
6023;SDS011;3040;42.654;23.296;2023-01-10T04:42:50;18.03;;;13.70;;
6023;SDS011;3040;42.654;23.296;2023-01-10T04:45:17;17.60;;;14.10;;
6023;SDS011;3040;42.654;23.296;2023-01-10T04:47:48;16.97;;;13.47;;
6023;SDS011;3040;42.654;23.296;2023-01-10T04:50:15;15.37;;;13.40;;
6023;SDS011;3040;42.654;23.296;2023-01-10T04:52:43;16.87;;;13.03;;
6023;SDS011;3040;42.654;23.296;2023-01-10T04:55:10;17.60;;;14.23;;
6023;SDS011;3040;42.654;23.296;2023-01-10T04:57:37;20.47;;;14.53;;
6023;SDS011;3040;42.654;23.296;2023-01-10T05:00:06;17.30;;;13.97;;
6023;SDS011;3040;42.654;23.296;2023-01-10T05:02:34;12.73;;;11.53;;
6023;SDS011;3040;42.654;23.296;2023-01-10T05:05:06;13.17;;;11.83;;
6023;SDS011;3040;42.654;23.296;2023-01-10T05:07:34;12.47;;;11.27;;
6023;SDS011;3040;42.654;23.296;2023-01-10T05:10:01;17.33;;;14.20;;
6023;SDS011;3040;42.654;23.296;2023-01-10T05:12:29;19.53;;;15.10;;
6023;SDS011;3040;42.654;23.296;2023-01-10T05:14:56;22.73;;;17.63;;
6023;SDS011;3040;42.654;23.296;2023-01-10T05:17:24;19.77;;;15.50;;
6023;SDS011;3040;42.654;23.296;2023-01-10T05:19:51;26.87;;;18.77;;
6023;SDS011;3040;42.654;23.296;2023-01-10T05:22:18;19.17;;;15.57;;
6023;SDS011;3040;42.654;23.296;2023-01-10T05:24:45;16.53;;;13.77;;
6023;SDS011;3040;42.654;23.296;2023-01-10T05:27:12;21.87;;;17.33;;
6023;SDS011;3040;42.654;23.296;2023-01-10T05:29:39;20.90;;;16.57;;
6023;SDS011;3040;42.654;23.296;2023-01-10T05:32:06;20.33;;;15.17;;
6023;SDS011;3040;42.654;23.296;2023-01-10T05:34:34;16.40;;;14.53;;
6023;SDS011;3040;42.654;23.296;2023-01-10T05:37:01;18.47;;;14.20;;
6023;SDS011;3040;42.654;23.296;2023-01-10T05:39:28;16.27;;;14.20;;
6023;SDS011;3040;42.654;23.296;2023-01-10T05:41:55;16.77;;;14.53;;
6023;SDS011;3040;42.654;23.296;2023-01-10T05:44:22;19.73;;;15.63;;
6023;SDS011;3040;42.654;23.296;2023-01-10T05:46:49;16.00;;;13.93;;
6023;SDS011;3040;42.654;23.296;2023-01-10T05:49:16;22.97;;;16.13;;
6023;SDS011;3040;42.654;23.296;2023-01-10T05:51:44;18.37;;;14.50;;
6023;SDS011;3040;42.654;23.296;2023-01-10T05:54:12;20.83;;;13.83;;
6023;SDS011;3040;42.654;23.296;2023-01-10T05:56:40;16.37;;;12.90;;
6023;SDS011;3040;42.654;23.296;2023-01-10T05:59:06;17.70;;;14.33;;
6023;SDS011;3040;42.654;23.296;2023-01-10T06:01:33;19.27;;;15.10;;
6023;SDS011;3040;42.654;23.296;2023-01-10T06:04:00;25.23;;;17.60;;
6023;SDS011;3040;42.654;23.296;2023-01-10T06:06:28;16.73;;;14.73;;
6023;SDS011;3040;42.654;23.296;2023-01-10T06:08:56;18.03;;;14.43;;
6023;SDS011;3040;42.654;23.296;2023-01-10T06:11:24;15.53;;;13.77;;
6023;SDS011;3040;42.654;23.296;2023-01-10T06:13:54;15.93;;;12.67;;
6023;SDS011;3040;42.654;23.296;2023-01-10T06:16:21;17.43;;;14.43;;
6023;SDS011;3040;42.654;23.296;2023-01-10T06:18:48;20.70;;;14.10;;
6023;SDS011;3040;42.654;23.296;2023-01-10T06:21:15;18.10;;;13.37;;
6023;SDS011;3040;42.654;23.296;2023-01-10T06:23:42;14.10;;;12.20;;
6023;SDS011;3040;42.654;23.296;2023-01-10T06:26:10;14.80;;;13.17;;
6023;SDS011;3040;42.654;23.296;2023-01-10T06:28:37;12.37;;;10.97;;
6023;SDS011;3040;42.654;23.296;2023-01-10T06:31:05;14.20;;;12.77;;
6023;SDS011;3040;42.654;23.296;2023-01-10T06:33:32;16.63;;;14.07;;
6023;SDS011;3040;42.654;23.296;2023-01-10T06:35:59;13.67;;;12.00;;
6023;SDS011;3040;42.654;23.296;2023-01-10T06:38:26;15.17;;;13.40;;
6023;SDS011;3040;42.654;23.296;2023-01-10T06:40:53;15.83;;;13.57;;
6023;SDS011;3040;42.654;23.296;2023-01-10T06:43:22;14.10;;;12.40;;
6023;SDS011;3040;42.654;23.296;2023-01-10T06:45:49;15.50;;;13.03;;
6023;SDS011;3040;42.654;23.296;2023-01-10T06:48:16;14.70;;;12.57;;
6023;SDS011;3040;42.654;23.296;2023-01-10T06:50:42;13.70;;;12.30;;
6023;SDS011;3040;42.654;23.296;2023-01-10T06:53:09;16.17;;;13.83;;
6023;SDS011;3040;42.654;23.296;2023-01-10T06:55:36;15.67;;;13.83;;
6023;SDS011;3040;42.654;23.296;2023-01-10T06:58:03;18.97;;;13.63;;
6023;SDS011;3040;42.654;23.296;2023-01-10T07:00:32;17.73;;;14.60;;
6023;SDS011;3040;42.654;23.296;2023-01-10T07:02:59;15.10;;;13.43;;
6023;SDS011;3040;42.654;23.296;2023-01-10T07:05:27;15.13;;;12.70;;
6023;SDS011;3040;42.654;23.296;2023-01-10T07:07:54;14.70;;;13.07;;
6023;SDS011;3040;42.654;23.296;2023-01-10T07:10:22;13.90;;;12.23;;
6023;SDS011;3040;42.654;23.296;2023-01-10T07:12:49;15.47;;;11.83;;
6023;SDS011;3040;42.654;23.296;2023-01-10T07:15:16;15.80;;;13.00;;
6023;SDS011;3040;42.654;23.296;2023-01-10T07:17:44;18.07;;;14.13;;
6023;SDS011;3040;42.654;23.296;2023-01-10T07:20:11;18.87;;;14.07;;
6023;SDS011;3040;42.654;23.296;2023-01-10T07:22:38;18.03;;;13.90;;
6023;SDS011;3040;42.654;23.296;2023-01-10T07:25:06;19.53;;;14.13;;
6023;SDS011;3040;42.654;23.296;2023-01-10T07:27:33;16.40;;;13.90;;
6023;SDS011;3040;42.654;23.296;2023-01-10T07:30:00;20.57;;;15.00;;
6023;SDS011;3040;42.654;23.296;2023-01-10T07:32:27;18.60;;;15.33;;
6023;SDS011;3040;42.654;23.296;2023-01-10T07:34:55;27.17;;;16.90;;
6023;SDS011;3040;42.654;23.296;2023-01-10T07:37:22;22.57;;;17.10;;
6023;SDS011;3040;42.654;23.296;2023-01-10T07:39:50;20.33;;;15.50;;
6023;SDS011;3040;42.654;23.296;2023-01-10T07:42:16;37.13;;;17.03;;
6023;SDS011;3040;42.654;23.296;2023-01-10T07:44:43;25.27;;;16.07;;
6023;SDS011;3040;42.654;23.296;2023-01-10T07:47:11;29.23;;;18.00;;
6023;SDS011;3040;42.654;23.296;2023-01-10T07:49:38;30.93;;;18.27;;
6023;SDS011;3040;42.654;23.296;2023-01-10T07:52:06;37.40;;;17.27;;
6023;SDS011;3040;42.654;23.296;2023-01-10T07:54:34;25.90;;;17.77;;
6023;SDS011;3040;42.654;23.296;2023-01-10T07:57:02;26.67;;;16.97;;
6023;SDS011;3040;42.654;23.296;2023-01-10T07:59:29;26.53;;;16.20;;
6023;SDS011;3040;42.654;23.296;2023-01-10T08:01:56;18.93;;;15.13;;
6023;SDS011;3040;42.654;23.296;2023-01-10T08:04:23;20.10;;;15.63;;
6023;SDS011;3040;42.654;23.296;2023-01-10T08:06:52;20.93;;;16.27;;
6023;SDS011;3040;42.654;23.296;2023-01-10T08:09:21;23.33;;;16.47;;
6023;SDS011;3040;42.654;23.296;2023-01-10T08:11:48;23.00;;;17.00;;
6023;SDS011;3040;42.654;23.296;2023-01-10T08:14:14;26.17;;;17.03;;
6023;SDS011;3040;42.654;23.296;2023-01-10T08:16:41;18.83;;;14.70;;
6023;SDS011;3040;42.654;23.296;2023-01-10T08:19:08;22.03;;;16.60;;
6023;SDS011;3040;42.654;23.296;2023-01-10T08:21:37;19.27;;;15.00;;
6023;SDS011;3040;42.654;23.296;2023-01-10T08:24:04;25.77;;;18.43;;
6023;SDS011;3040;42.654;23.296;2023-01-10T08:26:33;19.77;;;15.30;;
6023;SDS011;3040;42.654;23.296;2023-01-10T08:29:00;23.40;;;14.73;;
6023;SDS011;3040;42.654;23.296;2023-01-10T08:31:27;17.50;;;14.90;;
6023;SDS011;3040;42.654;23.296;2023-01-10T08:33:54;15.73;;;13.90;;
6023;SDS011;3040;42.654;23.296;2023-01-10T08:36:21;17.67;;;14.43;;
6023;SDS011;3040;42.654;23.296;2023-01-10T08:38:49;31.07;;;19.80;;
6023;SDS011;3040;42.654;23.296;2023-01-10T08:41:16;37.83;;;22.90;;
6023;SDS011;3040;42.654;23.296;2023-01-10T08:43:44;33.40;;;22.63;;
6023;SDS011;3040;42.654;23.296;2023-01-10T08:46:15;35.00;;;22.83;;
6023;SDS011;3040;42.654;23.296;2023-01-10T08:48:43;40.47;;;24.33;;
6023;SDS011;3040;42.654;23.296;2023-01-10T08:51:09;46.17;;;24.80;;
6023;SDS011;3040;42.654;23.296;2023-01-10T08:53:37;59.60;;;28.40;;
6023;SDS011;3040;42.654;23.296;2023-01-10T08:56:05;49.20;;;28.00;;
6023;SDS011;3040;42.654;23.296;2023-01-10T08:58:33;55.90;;;32.47;;
6023;SDS011;3040;42.654;23.296;2023-01-10T09:01:03;56.67;;;32.43;;
6023;SDS011;3040;42.654;23.296;2023-01-10T09:03:31;60.40;;;33.77;;
6023;SDS011;3040;42.654;23.296;2023-01-10T09:05:58;55.07;;;33.17;;
6023;SDS011;3040;42.654;23.296;2023-01-10T09:08:25;54.10;;;32.93;;
6023;SDS011;3040;42.654;23.296;2023-01-10T09:10:53;56.47;;;32.07;;
6023;SDS011;3040;42.654;23.296;2023-01-10T09:13:20;48.77;;;30.63;;
6023;SDS011;3040;42.654;23.296;2023-01-10T09:15:47;49.63;;;29.77;;
6023;SDS011;3040;42.654;23.296;2023-01-10T09:18:18;49.00;;;29.97;;
6023;SDS011;3040;42.654;23.296;2023-01-10T09:20:45;46.80;;;28.43;;
6023;SDS011;3040;42.654;23.296;2023-01-10T09:23:12;48.77;;;27.80;;
6023;SDS011;3040;42.654;23.296;2023-01-10T09:25:44;43.33;;;26.53;;
6023;SDS011;3040;42.654;23.296;2023-01-10T09:28:11;50.63;;;28.33;;
6023;SDS011;3040;42.654;23.296;2023-01-10T09:30:38;44.80;;;27.40;;
6023;SDS011;3040;42.654;23.296;2023-01-10T09:33:05;42.27;;;25.77;;
6023;SDS011;3040;42.654;23.296;2023-01-10T09:35:35;35.40;;;25.50;;
6023;SDS011;3040;42.654;23.296;2023-01-10T09:38:04;39.60;;;24.73;;
6023;SDS011;3040;42.654;23.296;2023-01-10T09:40:36;33.60;;;23.87;;
6023;SDS011;3040;42.654;23.296;2023-01-10T09:43:16;30.47;;;23.77;;
6023;SDS011;3040;42.654;23.296;2023-01-10T09:45:50;33.87;;;23.80;;
6023;SDS011;3040;42.654;23.296;2023-01-10T09:48:25;38.63;;;25.60;;
6023;SDS011;3040;42.654;23.296;2023-01-10T09:51:03;38.40;;;25.40;;
6023;SDS011;3040;42.654;23.296;2023-01-10T09:53:44;39.77;;;24.47;;
6023;SDS011;3040;42.654;23.296;2023-01-10T09:56:12;43.37;;;26.53;;
6023;SDS011;3040;42.654;23.296;2023-01-10T09:58:41;42.57;;;26.07;;
6023;SDS011;3040;42.654;23.296;2023-01-10T10:01:10;44.13;;;27.53;;
6023;SDS011;3040;42.654;23.296;2023-01-10T10:03:43;38.00;;;24.80;;
6023;SDS011;3040;42.654;23.296;2023-01-10T10:06:15;37.07;;;25.13;;
6023;SDS011;3040;42.654;23.296;2023-01-10T10:08:43;33.17;;;22.10;;
6023;SDS011;3040;42.654;23.296;2023-01-10T10:11:21;35.67;;;22.57;;
6023;SDS011;3040;42.654;23.296;2023-01-10T10:14:10;36.33;;;24.07;;
6023;SDS011;3040;42.654;23.296;2023-01-10T10:16:53;41.03;;;25.37;;
6023;SDS011;3040;42.654;23.296;2023-01-10T10:19:33;44.17;;;26.17;;
6023;SDS011;3040;42.654;23.296;2023-01-10T10:22:15;41.17;;;26.53;;
6023;SDS011;3040;42.654;23.296;2023-01-10T10:24:51;40.27;;;26.50;;
6023;SDS011;3040;42.654;23.296;2023-01-10T10:27:32;47.27;;;28.30;;
6023;SDS011;3040;42.654;23.296;2023-01-10T10:30:14;39.40;;;26.70;;
6023;SDS011;3040;42.654;23.296;2023-01-10T10:35:56;37.87;;;23.77;;
6023;SDS011;3040;42.654;23.296;2023-01-10T10:38:31;35.57;;;24.70;;
6023;SDS011;3040;42.654;23.296;2023-01-10T10:41:02;38.60;;;26.00;;
6023;SDS011;3040;42.654;23.296;2023-01-10T10:43:36;40.70;;;26.43;;
6023;SDS011;3040;42.654;23.296;2023-01-10T10:46:06;37.73;;;24.50;;
6023;SDS011;3040;42.654;23.296;2023-01-10T10:48:35;35.13;;;23.47;;
6023;SDS011;3040;42.654;23.296;2023-01-10T10:51:07;32.17;;;23.40;;
6023;SDS011;3040;42.654;23.296;2023-01-10T10:53:39;34.80;;;23.43;;
6023;SDS011;3040;42.654;23.296;2023-01-10T10:56:08;33.70;;;23.37;;
6023;SDS011;3040;42.654;23.296;2023-01-10T10:58:40;36.50;;;22.93;;
6023;SDS011;3040;42.654;23.296;2023-01-10T11:01:10;35.30;;;24.53;;
6023;SDS011;3040;42.654;23.296;2023-01-10T11:03:40;33.50;;;23.70;;
6023;SDS011;3040;42.654;23.296;2023-01-10T11:06:11;35.00;;;24.13;;
6023;SDS011;3040;42.654;23.296;2023-01-10T11:08:43;37.67;;;23.57;;
6023;SDS011;3040;42.654;23.296;2023-01-10T11:11:15;35.57;;;23.40;;
6023;SDS011;3040;42.654;23.296;2023-01-10T11:13:46;33.47;;;23.23;;
6023;SDS011;3040;42.654;23.296;2023-01-10T11:16:24;37.57;;;23.43;;
6023;SDS011;3040;42.654;23.296;2023-01-10T11:21:52;31.53;;;22.57;;
6023;SDS011;3040;42.654;23.296;2023-01-10T11:24:24;39.03;;;23.87;;
6023;SDS011;3040;42.654;23.296;2023-01-10T11:26:54;39.67;;;23.70;;
6023;SDS011;3040;42.654;23.296;2023-01-10T11:29:23;34.90;;;24.37;;
6023;SDS011;3040;42.654;23.296;2023-01-10T11:31:53;46.33;;;26.60;;
6023;SDS011;3040;42.654;23.296;2023-01-10T11:34:22;45.67;;;26.27;;
6023;SDS011;3040;42.654;23.296;2023-01-10T11:36:53;42.47;;;25.03;;
6023;SDS011;3040;42.654;23.296;2023-01-10T11:39:23;43.30;;;23.57;;
6023;SDS011;3040;42.654;23.296;2023-01-10T11:41:51;39.43;;;23.43;;
6023;SDS011;3040;42.654;23.296;2023-01-10T11:44:21;39.87;;;23.97;;
6023;SDS011;3040;42.654;23.296;2023-01-10T11:46:50;37.47;;;23.93;;
6023;SDS011;3040;42.654;23.296;2023-01-10T11:49:22;29.43;;;20.63;;
6023;SDS011;3040;42.654;23.296;2023-01-10T11:51:55;31.70;;;21.23;;
6023;SDS011;3040;42.654;23.296;2023-01-10T11:54:28;27.23;;;19.43;;
6023;SDS011;3040;42.654;23.296;2023-01-10T11:56:56;30.30;;;19.83;;
6023;SDS011;3040;42.654;23.296;2023-01-10T11:59:25;25.23;;;19.13;;
6023;SDS011;3040;42.654;23.296;2023-01-10T12:01:55;26.97;;;18.80;;
6023;SDS011;3040;42.654;23.296;2023-01-10T12:04:24;26.47;;;19.33;;
6023;SDS011;3040;42.654;23.296;2023-01-10T12:06:55;26.20;;;19.00;;
6023;SDS011;3040;42.654;23.296;2023-01-10T12:09:33;26.77;;;18.50;;
6023;SDS011;3040;42.654;23.296;2023-01-10T12:12:02;25.07;;;18.30;;
6023;SDS011;3040;42.654;23.296;2023-01-10T12:14:30;25.47;;;18.90;;
6023;SDS011;3040;42.654;23.296;2023-01-10T12:16:57;34.23;;;19.93;;
6023;SDS011;3040;42.654;23.296;2023-01-10T12:19:25;27.30;;;19.50;;
6023;SDS011;3040;42.654;23.296;2023-01-10T12:21:53;25.40;;;18.37;;
6023;SDS011;3040;42.654;23.296;2023-01-10T12:24:24;24.20;;;18.83;;
6023;SDS011;3040;42.654;23.296;2023-01-10T12:26:56;25.57;;;19.70;;
6023;SDS011;3040;42.654;23.296;2023-01-10T12:29:25;31.20;;;20.80;;
6023;SDS011;3040;42.654;23.296;2023-01-10T12:31:54;22.43;;;18.13;;
6023;SDS011;3040;42.654;23.296;2023-01-10T12:34:24;26.53;;;19.07;;
6023;SDS011;3040;42.654;23.296;2023-01-10T12:37:04;29.50;;;19.20;;
6023;SDS011;3040;42.654;23.296;2023-01-10T12:39:39;28.67;;;19.93;;
6023;SDS011;3040;42.654;23.296;2023-01-10T12:42:17;28.00;;;20.20;;
6023;SDS011;3040;42.654;23.296;2023-01-10T12:45:11;29.23;;;20.03;;
6023;SDS011;3040;42.654;23.296;2023-01-10T12:47:47;27.67;;;19.70;;
6023;SDS011;3040;42.654;23.296;2023-01-10T12:50:21;19.60;;;15.80;;
6023;SDS011;3040;42.654;23.296;2023-01-10T12:52:53;21.30;;;15.40;;
6023;SDS011;3040;42.654;23.296;2023-01-10T12:55:26;18.23;;;16.27;;
6023;SDS011;3040;42.654;23.296;2023-01-10T12:57:58;19.70;;;15.53;;
6023;SDS011;3040;42.654;23.296;2023-01-10T13:00:28;20.73;;;17.40;;
6023;SDS011;3040;42.654;23.296;2023-01-10T13:02:59;22.57;;;17.60;;
6023;SDS011;3040;42.654;23.296;2023-01-10T13:05:28;22.60;;;18.03;;
6023;SDS011;3040;42.654;23.296;2023-01-10T13:07:58;21.43;;;16.90;;
6023;SDS011;3040;42.654;23.296;2023-01-10T13:10:32;21.50;;;18.37;;
6023;SDS011;3040;42.654;23.296;2023-01-10T13:13:08;24.70;;;18.03;;
6023;SDS011;3040;42.654;23.296;2023-01-10T13:15:47;22.53;;;17.70;;
6023;SDS011;3040;42.654;23.296;2023-01-10T13:18:18;18.53;;;16.50;;
6023;SDS011;3040;42.654;23.296;2023-01-10T13:21:00;18.90;;;15.60;;
6023;SDS011;3040;42.654;23.296;2023-01-10T13:23:29;16.73;;;14.83;;
6023;SDS011;3040;42.654;23.296;2023-01-10T13:25:59;15.77;;;13.83;;
6023;SDS011;3040;42.654;23.296;2023-01-10T13:28:31;17.57;;;15.17;;
6023;SDS011;3040;42.654;23.296;2023-01-10T13:31:00;15.10;;;13.37;;
6023;SDS011;3040;42.654;23.296;2023-01-10T13:33:29;14.63;;;13.23;;
6023;SDS011;3040;42.654;23.296;2023-01-10T13:36:06;14.17;;;12.73;;
6023;SDS011;3040;42.654;23.296;2023-01-10T13:38:36;13.73;;;12.43;;
6023;SDS011;3040;42.654;23.296;2023-01-10T13:41:10;14.07;;;12.77;;
6023;SDS011;3040;42.654;23.296;2023-01-10T13:44:00;13.43;;;12.37;;
6023;SDS011;3040;42.654;23.296;2023-01-10T13:49:25;12.30;;;11.30;;
6023;SDS011;3040;42.654;23.296;2023-01-10T13:57:52;13.10;;;11.10;;
6023;SDS011;3040;42.654;23.296;2023-01-10T14:00:23;12.30;;;11.00;;
6023;SDS011;3040;42.654;23.296;2023-01-10T14:06:18;10.53;;;9.63;;
6023;SDS011;3040;42.654;23.296;2023-01-10T14:12:06;11.40;;;10.30;;
6023;SDS011;3040;42.654;23.296;2023-01-10T14:14:43;11.43;;;10.50;;
6023;SDS011;3040;42.654;23.296;2023-01-10T14:17:21;12.13;;;11.07;;
6023;SDS011;3040;42.654;23.296;2023-01-10T14:19:56;13.97;;;12.60;;
6023;SDS011;3040;42.654;23.296;2023-01-10T14:22:39;15.00;;;13.50;;
6023;SDS011;3040;42.654;23.296;2023-01-10T14:25:14;14.73;;;12.60;;
6023;SDS011;3040;42.654;23.296;2023-01-10T14:27:45;10.50;;;9.70;;
6023;SDS011;3040;42.654;23.296;2023-01-10T14:30:15;8.70;;;8.10;;
6023;SDS011;3040;42.654;23.296;2023-01-10T14:32:48;9.50;;;8.90;;
6023;SDS011;3040;42.654;23.296;2023-01-10T14:35:18;10.00;;;9.20;;
6023;SDS011;3040;42.654;23.296;2023-01-10T14:37:49;8.67;;;7.93;;
6023;SDS011;3040;42.654;23.296;2023-01-10T14:40:23;8.90;;;8.20;;
6023;SDS011;3040;42.654;23.296;2023-01-10T14:42:53;6.23;;;5.73;;
6023;SDS011;3040;42.654;23.296;2023-01-10T14:45:32;6.17;;;5.83;;
6023;SDS011;3040;42.654;23.296;2023-01-10T14:48:18;5.90;;;5.60;;
6023;SDS011;3040;42.654;23.296;2023-01-10T14:50:51;5.37;;;5.07;;
6023;SDS011;3040;42.654;23.296;2023-01-10T14:53:24;5.27;;;4.97;;
6023;SDS011;3040;42.654;23.296;2023-01-10T14:55:52;3.10;;;2.90;;
6023;SDS011;3040;42.654;23.296;2023-01-10T14:58:19;3.43;;;3.33;;
6023;SDS011;3040;42.654;23.296;2023-01-10T15:00:47;3.23;;;3.03;;
6023;SDS011;3040;42.654;23.296;2023-01-10T15:03:19;3.30;;;3.00;;
6023;SDS011;3040;42.654;23.296;2023-01-10T15:05:47;3.17;;;2.50;;
6023;SDS011;3040;42.654;23.296;2023-01-10T15:08:20;2.53;;;2.43;;
6023;SDS011;3040;42.654;23.296;2023-01-10T15:10:48;2.40;;;2.30;;
6023;SDS011;3040;42.654;23.296;2023-01-10T15:13:18;2.03;;;1.93;;
6023;SDS011;3040;42.654;23.296;2023-01-10T15:15:49;1.73;;;1.70;;